sensor_id;sensor_type;location;lat;lon;timestamp;P1;durP1;ratioP1;P2;durP2;ratioP2
37907;SDS011;23740;51.550;6.846;2023-09-30T00:00:37;8.15;;;2.47;;
37907;SDS011;23740;51.550;6.846;2023-09-30T00:03:06;5.28;;;1.95;;
37907;SDS011;23740;51.550;6.846;2023-09-30T00:05:34;4.55;;;2.13;;
37907;SDS011;23740;51.550;6.846;2023-09-30T00:08:03;6.90;;;2.20;;
37907;SDS011;23740;51.550;6.846;2023-09-30T00:10:33;5.30;;;2.50;;
37907;SDS011;23740;51.550;6.846;2023-09-30T00:13:00;4.68;;;2.22;;
37907;SDS011;23740;51.550;6.846;2023-09-30T00:15:28;5.38;;;1.73;;
37907;SDS011;23740;51.550;6.846;2023-09-30T00:17:57;5.88;;;2.42;;
37907;SDS011;23740;51.550;6.846;2023-09-30T00:20:24;5.65;;;2.45;;
37907;SDS011;23740;51.550;6.846;2023-09-30T00:22:53;4.20;;;1.80;;
37907;SDS011;23740;51.550;6.846;2023-09-30T00:25:22;6.13;;;2.08;;
37907;SDS011;23740;51.550;6.846;2023-09-30T00:27:50;6.95;;;2.55;;
37907;SDS011;23740;51.550;6.846;2023-09-30T00:30:18;7.72;;;2.58;;
37907;SDS011;23740;51.550;6.846;2023-09-30T00:32:47;7.40;;;2.33;;
37907;SDS011;23740;51.550;6.846;2023-09-30T00:35:15;6.22;;;2.45;;
37907;SDS011;23740;51.550;6.846;2023-09-30T00:37:43;8.45;;;2.70;;
37907;SDS011;23740;51.550;6.846;2023-09-30T00:40:11;5.68;;;2.85;;
37907;SDS011;23740;51.550;6.846;2023-09-30T00:42:41;7.90;;;3.03;;
37907;SDS011;23740;51.550;6.846;2023-09-30T00:45:09;8.18;;;2.80;;
37907;SDS011;23740;51.550;6.846;2023-09-30T00:47:37;8.73;;;2.50;;
37907;SDS011;23740;51.550;6.846;2023-09-30T00:50:06;6.72;;;2.97;;
37907;SDS011;23740;51.550;6.846;2023-09-30T00:52:37;9.80;;;3.63;;
37907;SDS011;23740;51.550;6.846;2023-09-30T00:55:06;7.22;;;2.97;;
37907;SDS011;23740;51.550;6.846;2023-09-30T00:57:37;5.65;;;2.70;;
37907;SDS011;23740;51.550;6.846;2023-09-30T01:00:07;7.78;;;3.03;;
37907;SDS011;23740;51.550;6.846;2023-09-30T01:05:07;6.45;;;2.72;;
37907;SDS011;23740;51.550;6.846;2023-09-30T01:07:35;7.78;;;3.33;;
37907;SDS011;23740;51.550;6.846;2023-09-30T01:10:04;7.38;;;2.88;;
37907;SDS011;23740;51.550;6.846;2023-09-30T01:12:33;10.18;;;3.05;;
37907;SDS011;23740;51.550;6.846;2023-09-30T01:15:01;5.47;;;2.53;;
37907;SDS011;23740;51.550;6.846;2023-09-30T01:17:35;8.65;;;2.83;;
37907;SDS011;23740;51.550;6.846;2023-09-30T01:20:03;6.65;;;3.15;;
37907;SDS011;23740;51.550;6.846;2023-09-30T01:22:34;6.40;;;3.00;;
37907;SDS011;23740;51.550;6.846;2023-09-30T01:25:02;4.25;;;2.63;;
37907;SDS011;23740;51.550;6.846;2023-09-30T01:27:30;9.02;;;3.13;;
37907;SDS011;23740;51.550;6.846;2023-09-30T01:29:58;6.93;;;3.13;;
37907;SDS011;23740;51.550;6.846;2023-09-30T01:32:26;6.18;;;3.40;;
37907;SDS011;23740;51.550;6.846;2023-09-30T01:34:55;9.93;;;3.10;;
37907;SDS011;23740;51.550;6.846;2023-09-30T01:37:23;9.00;;;3.17;;
37907;SDS011;23740;51.550;6.846;2023-09-30T01:39:57;7.72;;;2.63;;
37907;SDS011;23740;51.550;6.846;2023-09-30T01:42:25;6.60;;;3.22;;
37907;SDS011;23740;51.550;6.846;2023-09-30T01:44:53;9.20;;;2.88;;
37907;SDS011;23740;51.550;6.846;2023-09-30T01:47:23;7.57;;;3.03;;
37907;SDS011;23740;51.550;6.846;2023-09-30T01:49:51;9.88;;;3.30;;
37907;SDS011;23740;51.550;6.846;2023-09-30T01:52:18;5.65;;;2.65;;
37907;SDS011;23740;51.550;6.846;2023-09-30T01:54:46;9.45;;;3.63;;
37907;SDS011;23740;51.550;6.846;2023-09-30T01:57:15;7.82;;;3.20;;
37907;SDS011;23740;51.550;6.846;2023-09-30T01:59:43;9.90;;;3.38;;
37907;SDS011;23740;51.550;6.846;2023-09-30T02:02:11;10.93;;;2.65;;
37907;SDS011;23740;51.550;6.846;2023-09-30T02:04:39;8.32;;;3.17;;
37907;SDS011;23740;51.550;6.846;2023-09-30T02:07:07;6.07;;;2.72;;
37907;SDS011;23740;51.550;6.846;2023-09-30T02:09:35;6.75;;;3.65;;
37907;SDS011;23740;51.550;6.846;2023-09-30T02:12:03;7.22;;;3.33;;
37907;SDS011;23740;51.550;6.846;2023-09-30T02:14:33;9.32;;;3.22;;
37907;SDS011;23740;51.550;6.846;2023-09-30T02:17:01;11.50;;;4.00;;
37907;SDS011;23740;51.550;6.846;2023-09-30T02:19:28;6.30;;;3.08;;
37907;SDS011;23740;51.550;6.846;2023-09-30T02:21:58;9.98;;;3.13;;
37907;SDS011;23740;51.550;6.846;2023-09-30T02:24:26;7.72;;;3.05;;
37907;SDS011;23740;51.550;6.846;2023-09-30T02:26:54;6.28;;;3.15;;
37907;SDS011;23740;51.550;6.846;2023-09-30T02:29:22;9.82;;;2.83;;
37907;SDS011;23740;51.550;6.846;2023-09-30T02:31:51;8.27;;;3.03;;
37907;SDS011;23740;51.550;6.846;2023-09-30T02:34:21;5.30;;;2.80;;
37907;SDS011;23740;51.550;6.846;2023-09-30T02:36:48;7.20;;;2.92;;
37907;SDS011;23740;51.550;6.846;2023-09-30T02:39:19;6.95;;;2.97;;
37907;SDS011;23740;51.550;6.846;2023-09-30T02:41:47;7.22;;;2.70;;
37907;SDS011;23740;51.550;6.846;2023-09-30T02:44:16;9.23;;;2.78;;
37907;SDS011;23740;51.550;6.846;2023-09-30T02:46:44;7.55;;;3.55;;
37907;SDS011;23740;51.550;6.846;2023-09-30T02:49:13;7.78;;;3.65;;
37907;SDS011;23740;51.550;6.846;2023-09-30T02:51:41;5.22;;;2.72;;
37907;SDS011;23740;51.550;6.846;2023-09-30T02:54:11;9.13;;;3.70;;
37907;SDS011;23740;51.550;6.846;2023-09-30T02:56:41;7.10;;;2.95;;
37907;SDS011;23740;51.550;6.846;2023-09-30T02:59:12;7.28;;;3.33;;
37907;SDS011;23740;51.550;6.846;2023-09-30T03:01:41;9.93;;;3.20;;
37907;SDS011;23740;51.550;6.846;2023-09-30T03:04:10;8.27;;;3.10;;
37907;SDS011;23740;51.550;6.846;2023-09-30T03:06:40;7.13;;;3.05;;
37907;SDS011;23740;51.550;6.846;2023-09-30T03:09:08;6.10;;;3.55;;
37907;SDS011;23740;51.550;6.846;2023-09-30T03:11:39;6.47;;;3.40;;
37907;SDS011;23740;51.550;6.846;2023-09-30T03:14:09;8.25;;;3.08;;
37907;SDS011;23740;51.550;6.846;2023-09-30T03:16:37;8.13;;;2.97;;
37907;SDS011;23740;51.550;6.846;2023-09-30T03:19:06;6.18;;;3.10;;
37907;SDS011;23740;51.550;6.846;2023-09-30T03:21:34;8.40;;;3.05;;
37907;SDS011;23740;51.550;6.846;2023-09-30T03:24:04;7.70;;;3.70;;
37907;SDS011;23740;51.550;6.846;2023-09-30T03:26:34;7.50;;;3.35;;
37907;SDS011;23740;51.550;6.846;2023-09-30T03:29:02;10.05;;;3.38;;
37907;SDS011;23740;51.550;6.846;2023-09-30T03:31:32;8.43;;;3.78;;
37907;SDS011;23740;51.550;6.846;2023-09-30T03:34:00;6.70;;;3.17;;
37907;SDS011;23740;51.550;6.846;2023-09-30T03:36:27;8.68;;;3.15;;
37907;SDS011;23740;51.550;6.846;2023-09-30T03:38:56;6.18;;;3.35;;
37907;SDS011;23740;51.550;6.846;2023-09-30T03:41:26;8.13;;;3.70;;
37907;SDS011;23740;51.550;6.846;2023-09-30T03:43:55;8.85;;;3.65;;
37907;SDS011;23740;51.550;6.846;2023-09-30T03:46:23;7.95;;;3.30;;
37907;SDS011;23740;51.550;6.846;2023-09-30T03:48:52;7.40;;;3.72;;
37907;SDS011;23740;51.550;6.846;2023-09-30T03:51:22;9.15;;;3.88;;
37907;SDS011;23740;51.550;6.846;2023-09-30T03:53:51;7.07;;;3.80;;
37907;SDS011;23740;51.550;6.846;2023-09-30T03:56:20;9.10;;;3.55;;
37907;SDS011;23740;51.550;6.846;2023-09-30T03:58:50;10.68;;;4.15;;
37907;SDS011;23740;51.550;6.846;2023-09-30T04:01:19;10.27;;;4.35;;
37907;SDS011;23740;51.550;6.846;2023-09-30T04:03:47;10.43;;;3.92;;
37907;SDS011;23740;51.550;6.846;2023-09-30T04:06:15;12.23;;;4.32;;
37907;SDS011;23740;51.550;6.846;2023-09-30T04:08:42;8.77;;;3.33;;
37907;SDS011;23740;51.550;6.846;2023-09-30T04:11:10;11.80;;;3.97;;
37907;SDS011;23740;51.550;6.846;2023-09-30T04:13:44;8.43;;;3.63;;
37907;SDS011;23740;51.550;6.846;2023-09-30T04:16:13;7.85;;;3.40;;
37907;SDS011;23740;51.550;6.846;2023-09-30T04:18:41;8.27;;;3.55;;
37907;SDS011;23740;51.550;6.846;2023-09-30T04:21:09;8.02;;;3.42;;
37907;SDS011;23740;51.550;6.846;2023-09-30T04:23:38;9.30;;;4.10;;
37907;SDS011;23740;51.550;6.846;2023-09-30T04:26:06;9.57;;;3.55;;
37907;SDS011;23740;51.550;6.846;2023-09-30T04:28:37;6.78;;;3.58;;
37907;SDS011;23740;51.550;6.846;2023-09-30T04:31:05;9.68;;;3.50;;
37907;SDS011;23740;51.550;6.846;2023-09-30T04:33:35;6.82;;;3.53;;
37907;SDS011;23740;51.550;6.846;2023-09-30T04:36:04;6.75;;;3.78;;
37907;SDS011;23740;51.550;6.846;2023-09-30T04:38:35;10.35;;;4.22;;
37907;SDS011;23740;51.550;6.846;2023-09-30T04:41:03;10.13;;;4.28;;
37907;SDS011;23740;51.550;6.846;2023-09-30T04:43:33;9.02;;;4.30;;
37907;SDS011;23740;51.550;6.846;2023-09-30T04:46:01;9.45;;;3.85;;
37907;SDS011;23740;51.550;6.846;2023-09-30T04:48:30;11.68;;;4.40;;
37907;SDS011;23740;51.550;6.846;2023-09-30T04:51:00;7.93;;;4.38;;
37907;SDS011;23740;51.550;6.846;2023-09-30T04:53:30;9.32;;;3.65;;
37907;SDS011;23740;51.550;6.846;2023-09-30T04:56:00;14.30;;;5.25;;
37907;SDS011;23740;51.550;6.846;2023-09-30T04:58:28;9.90;;;3.63;;
37907;SDS011;23740;51.550;6.846;2023-09-30T05:00:57;7.78;;;3.58;;
37907;SDS011;23740;51.550;6.846;2023-09-30T05:03:25;8.77;;;3.92;;
37907;SDS011;23740;51.550;6.846;2023-09-30T05:05:53;10.05;;;4.30;;
37907;SDS011;23740;51.550;6.846;2023-09-30T05:08:23;7.28;;;3.45;;
37907;SDS011;23740;51.550;6.846;2023-09-30T05:10:52;10.48;;;3.90;;
37907;SDS011;23740;51.550;6.846;2023-09-30T05:13:22;8.52;;;3.70;;
37907;SDS011;23740;51.550;6.846;2023-09-30T05:15:50;8.52;;;4.72;;
37907;SDS011;23740;51.550;6.846;2023-09-30T05:18:19;9.90;;;4.50;;
37907;SDS011;23740;51.550;6.846;2023-09-30T05:20:47;7.25;;;3.67;;
37907;SDS011;23740;51.550;6.846;2023-09-30T05:23:16;8.43;;;4.00;;
37907;SDS011;23740;51.550;6.846;2023-09-30T05:25:46;12.38;;;4.20;;
37907;SDS011;23740;51.550;6.846;2023-09-30T05:28:14;10.63;;;4.53;;
37907;SDS011;23740;51.550;6.846;2023-09-30T05:30:42;8.10;;;3.50;;
37907;SDS011;23740;51.550;6.846;2023-09-30T05:33:12;10.45;;;3.70;;
37907;SDS011;23740;51.550;6.846;2023-09-30T05:35:41;9.05;;;3.65;;
37907;SDS011;23740;51.550;6.846;2023-09-30T05:38:09;8.48;;;3.83;;
37907;SDS011;23740;51.550;6.846;2023-09-30T05:40:39;12.48;;;4.53;;
37907;SDS011;23740;51.550;6.846;2023-09-30T05:43:09;11.18;;;4.07;;
37907;SDS011;23740;51.550;6.846;2023-09-30T05:45:40;10.05;;;3.83;;
37907;SDS011;23740;51.550;6.846;2023-09-30T05:48:15;10.65;;;4.28;;
37907;SDS011;23740;51.550;6.846;2023-09-30T05:50:44;11.32;;;3.90;;
37907;SDS011;23740;51.550;6.846;2023-09-30T05:53:13;10.40;;;4.47;;
37907;SDS011;23740;51.550;6.846;2023-09-30T05:55:41;9.63;;;4.07;;
37907;SDS011;23740;51.550;6.846;2023-09-30T05:58:13;9.45;;;3.90;;
37907;SDS011;23740;51.550;6.846;2023-09-30T06:00:42;8.13;;;4.20;;
37907;SDS011;23740;51.550;6.846;2023-09-30T06:03:11;10.43;;;4.10;;
37907;SDS011;23740;51.550;6.846;2023-09-30T06:05:39;12.98;;;4.20;;
37907;SDS011;23740;51.550;6.846;2023-09-30T06:08:08;7.55;;;3.95;;
37907;SDS011;23740;51.550;6.846;2023-09-30T06:10:40;9.63;;;4.15;;
37907;SDS011;23740;51.550;6.846;2023-09-30T06:13:11;11.52;;;5.18;;
37907;SDS011;23740;51.550;6.846;2023-09-30T06:15:39;9.20;;;4.32;;
37907;SDS011;23740;51.550;6.846;2023-09-30T06:18:08;7.93;;;4.50;;
37907;SDS011;23740;51.550;6.846;2023-09-30T06:20:40;11.30;;;5.80;;
37907;SDS011;23740;51.550;6.846;2023-09-30T06:23:08;13.43;;;4.82;;
37907;SDS011;23740;51.550;6.846;2023-09-30T06:25:37;10.48;;;4.10;;
37907;SDS011;23740;51.550;6.846;2023-09-30T06:28:06;13.98;;;5.63;;
37907;SDS011;23740;51.550;6.846;2023-09-30T06:30:36;8.00;;;4.93;;
37907;SDS011;23740;51.550;6.846;2023-09-30T06:33:04;13.00;;;4.82;;
37907;SDS011;23740;51.550;6.846;2023-09-30T06:35:34;16.35;;;5.07;;
37907;SDS011;23740;51.550;6.846;2023-09-30T06:38:05;6.93;;;4.57;;
37907;SDS011;23740;51.550;6.846;2023-09-30T06:40:34;12.55;;;5.30;;
37907;SDS011;23740;51.550;6.846;2023-09-30T06:43:06;9.93;;;5.13;;
37907;SDS011;23740;51.550;6.846;2023-09-30T06:45:35;10.20;;;4.70;;
37907;SDS011;23740;51.550;6.846;2023-09-30T06:48:08;14.00;;;5.78;;
37907;SDS011;23740;51.550;6.846;2023-09-30T06:50:39;12.90;;;5.90;;
37907;SDS011;23740;51.550;6.846;2023-09-30T06:53:07;12.20;;;5.53;;
37907;SDS011;23740;51.550;6.846;2023-09-30T06:55:36;9.60;;;5.15;;
37907;SDS011;23740;51.550;6.846;2023-09-30T06:58:05;14.77;;;6.10;;
37907;SDS011;23740;51.550;6.846;2023-09-30T07:00:33;14.23;;;6.47;;
37907;SDS011;23740;51.550;6.846;2023-09-30T07:03:03;17.70;;;6.05;;
37907;SDS011;23740;51.550;6.846;2023-09-30T07:05:32;11.85;;;6.53;;
37907;SDS011;23740;51.550;6.846;2023-09-30T07:07:59;13.68;;;6.28;;
37907;SDS011;23740;51.550;6.846;2023-09-30T07:10:27;14.30;;;6.00;;
37907;SDS011;23740;51.550;6.846;2023-09-30T07:12:55;13.90;;;6.63;;
37907;SDS011;23740;51.550;6.846;2023-09-30T07:15:23;12.73;;;6.00;;
37907;SDS011;23740;51.550;6.846;2023-09-30T07:17:54;13.80;;;6.68;;
37907;SDS011;23740;51.550;6.846;2023-09-30T07:20:22;13.85;;;6.63;;
37907;SDS011;23740;51.550;6.846;2023-09-30T07:22:50;12.73;;;7.05;;
37907;SDS011;23740;51.550;6.846;2023-09-30T07:25:37;15.73;;;7.28;;
37907;SDS011;23740;51.550;6.846;2023-09-30T07:28:05;15.75;;;7.43;;
37907;SDS011;23740;51.550;6.846;2023-09-30T07:33:08;14.93;;;7.38;;
37907;SDS011;23740;51.550;6.846;2023-09-30T07:35:36;13.35;;;6.60;;
37907;SDS011;23740;51.550;6.846;2023-09-30T07:38:05;16.00;;;7.60;;
37907;SDS011;23740;51.550;6.846;2023-09-30T07:40:33;14.93;;;7.20;;
37907;SDS011;23740;51.550;6.846;2023-09-30T07:43:00;17.25;;;8.40;;
37907;SDS011;23740;51.550;6.846;2023-09-30T07:45:29;14.38;;;7.25;;
37907;SDS011;23740;51.550;6.846;2023-09-30T07:47:57;15.90;;;8.23;;
37907;SDS011;23740;51.550;6.846;2023-09-30T07:50:27;13.35;;;8.05;;
37907;SDS011;23740;51.550;6.846;2023-09-30T07:52:55;19.38;;;8.60;;
37907;SDS011;23740;51.550;6.846;2023-09-30T07:55:24;15.38;;;8.82;;
37907;SDS011;23740;51.550;6.846;2023-09-30T07:57:52;17.90;;;8.70;;
37907;SDS011;23740;51.550;6.846;2023-09-30T08:00:20;13.45;;;7.18;;
37907;SDS011;23740;51.550;6.846;2023-09-30T08:02:48;15.13;;;8.02;;
37907;SDS011;23740;51.550;6.846;2023-09-30T08:05:16;15.60;;;8.20;;
37907;SDS011;23740;51.550;6.846;2023-09-30T08:07:45;16.70;;;8.00;;
37907;SDS011;23740;51.550;6.846;2023-09-30T08:10:13;14.45;;;7.82;;
37907;SDS011;23740;51.550;6.846;2023-09-30T08:12:43;14.75;;;8.25;;
37907;SDS011;23740;51.550;6.846;2023-09-30T08:15:12;15.68;;;9.07;;
37907;SDS011;23740;51.550;6.846;2023-09-30T08:17:40;14.50;;;8.77;;
37907;SDS011;23740;51.550;6.846;2023-09-30T08:20:08;13.55;;;8.57;;
37907;SDS011;23740;51.550;6.846;2023-09-30T08:22:37;14.02;;;8.13;;
37907;SDS011;23740;51.550;6.846;2023-09-30T08:25:07;15.40;;;9.40;;
37907;SDS011;23740;51.550;6.846;2023-09-30T08:27:36;16.25;;;9.52;;
37907;SDS011;23740;51.550;6.846;2023-09-30T08:30:05;14.98;;;8.38;;
37907;SDS011;23740;51.550;6.846;2023-09-30T08:32:34;12.73;;;8.80;;
37907;SDS011;23740;51.550;6.846;2023-09-30T08:35:02;12.88;;;8.40;;
37907;SDS011;23740;51.550;6.846;2023-09-30T08:37:30;13.18;;;8.55;;
37907;SDS011;23740;51.550;6.846;2023-09-30T08:39:59;12.93;;;8.05;;
37907;SDS011;23740;51.550;6.846;2023-09-30T08:42:28;14.38;;;7.93;;
37907;SDS011;23740;51.550;6.846;2023-09-30T08:45:00;14.07;;;7.78;;
37907;SDS011;23740;51.550;6.846;2023-09-30T08:47:27;13.32;;;7.45;;
37907;SDS011;23740;51.550;6.846;2023-09-30T08:49:56;13.68;;;6.15;;
37907;SDS011;23740;51.550;6.846;2023-09-30T08:52:27;13.00;;;6.40;;
37907;SDS011;23740;51.550;6.846;2023-09-30T08:54:57;10.73;;;5.43;;
37907;SDS011;23740;51.550;6.846;2023-09-30T08:57:25;11.13;;;6.60;;
37907;SDS011;23740;51.550;6.846;2023-09-30T08:59:54;10.77;;;6.78;;
37907;SDS011;23740;51.550;6.846;2023-09-30T09:02:22;9.68;;;6.13;;
37907;SDS011;23740;51.550;6.846;2023-09-30T09:04:50;12.25;;;6.55;;
37907;SDS011;23740;51.550;6.846;2023-09-30T09:07:18;11.88;;;7.10;;
37907;SDS011;23740;51.550;6.846;2023-09-30T09:12:34;10.38;;;6.10;;
37907;SDS011;23740;51.550;6.846;2023-09-30T09:15:07;11.27;;;6.88;;
37907;SDS011;23740;51.550;6.846;2023-09-30T09:17:40;11.88;;;6.30;;
37907;SDS011;23740;51.550;6.846;2023-09-30T09:20:09;8.52;;;5.47;;
37907;SDS011;23740;51.550;6.846;2023-09-30T09:22:40;10.45;;;5.32;;
37907;SDS011;23740;51.550;6.846;2023-09-30T09:25:09;8.50;;;5.18;;
37907;SDS011;23740;51.550;6.846;2023-09-30T09:27:37;9.23;;;4.72;;
37907;SDS011;23740;51.550;6.846;2023-09-30T09:30:15;6.68;;;4.85;;
37907;SDS011;23740;51.550;6.846;2023-09-30T09:32:53;6.88;;;4.32;;
37907;SDS011;23740;51.550;6.846;2023-09-30T09:35:24;5.97;;;3.78;;
37907;SDS011;23740;51.550;6.846;2023-09-30T09:37:55;7.47;;;4.38;;
37907;SDS011;23740;51.550;6.846;2023-09-30T09:40:25;6.63;;;4.18;;
37907;SDS011;23740;51.550;6.846;2023-09-30T09:42:54;7.85;;;4.53;;
37907;SDS011;23740;51.550;6.846;2023-09-30T09:45:24;9.95;;;4.95;;
37907;SDS011;23740;51.550;6.846;2023-09-30T09:47:53;7.75;;;4.30;;
37907;SDS011;23740;51.550;6.846;2023-09-30T09:50:23;10.00;;;4.53;;
37907;SDS011;23740;51.550;6.846;2023-09-30T09:52:51;8.90;;;3.70;;
37907;SDS011;23740;51.550;6.846;2023-09-30T09:55:22;7.57;;;3.47;;
37907;SDS011;23740;51.550;6.846;2023-09-30T09:57:51;6.05;;;3.45;;
37907;SDS011;23740;51.550;6.846;2023-09-30T10:00:20;6.97;;;3.90;;
37907;SDS011;23740;51.550;6.846;2023-09-30T10:02:51;9.18;;;5.18;;
37907;SDS011;23740;51.550;6.846;2023-09-30T10:05:20;7.35;;;3.67;;
37907;SDS011;23740;51.550;6.846;2023-09-30T10:07:52;6.88;;;3.58;;
37907;SDS011;23740;51.550;6.846;2023-09-30T10:10:22;7.53;;;4.85;;
37907;SDS011;23740;51.550;6.846;2023-09-30T10:12:51;8.88;;;4.93;;
37907;SDS011;23740;51.550;6.846;2023-09-30T10:15:35;7.70;;;3.85;;
37907;SDS011;23740;51.550;6.846;2023-09-30T10:18:08;7.95;;;4.22;;
37907;SDS011;23740;51.550;6.846;2023-09-30T10:20:41;7.65;;;4.25;;
37907;SDS011;23740;51.550;6.846;2023-09-30T10:23:18;8.90;;;3.83;;
37907;SDS011;23740;51.550;6.846;2023-09-30T10:25:46;6.63;;;3.63;;
37907;SDS011;23740;51.550;6.846;2023-09-30T10:31:13;6.72;;;3.65;;
37907;SDS011;23740;51.550;6.846;2023-09-30T10:36:48;4.70;;;3.20;;
37907;SDS011;23740;51.550;6.846;2023-09-30T10:48:32;4.32;;;3.05;;
37907;SDS011;23740;51.550;6.846;2023-09-30T10:51:11;6.50;;;3.22;;
37907;SDS011;23740;51.550;6.846;2023-09-30T10:53:41;4.15;;;2.60;;
37907;SDS011;23740;51.550;6.846;2023-09-30T10:56:11;4.75;;;3.13;;
37907;SDS011;23740;51.550;6.846;2023-09-30T10:58:40;4.60;;;3.00;;
37907;SDS011;23740;51.550;6.846;2023-09-30T11:01:09;3.92;;;2.80;;
37907;SDS011;23740;51.550;6.846;2023-09-30T11:03:37;5.38;;;2.80;;
37907;SDS011;23740;51.550;6.846;2023-09-30T11:06:05;7.57;;;3.10;;
37907;SDS011;23740;51.550;6.846;2023-09-30T11:08:40;6.32;;;3.83;;
37907;SDS011;23740;51.550;6.846;2023-09-30T11:11:12;4.63;;;3.45;;
37907;SDS011;23740;51.550;6.846;2023-09-30T11:13:41;6.07;;;2.97;;
37907;SDS011;23740;51.550;6.846;2023-09-30T11:16:09;5.30;;;3.03;;
37907;SDS011;23740;51.550;6.846;2023-09-30T11:18:37;4.43;;;2.83;;
37907;SDS011;23740;51.550;6.846;2023-09-30T11:21:06;6.15;;;2.92;;
37907;SDS011;23740;51.550;6.846;2023-09-30T11:23:35;5.75;;;3.33;;
37907;SDS011;23740;51.550;6.846;2023-09-30T11:26:05;4.60;;;3.13;;
37907;SDS011;23740;51.550;6.846;2023-09-30T11:28:37;7.43;;;2.97;;
37907;SDS011;23740;51.550;6.846;2023-09-30T11:31:09;4.40;;;2.47;;
37907;SDS011;23740;51.550;6.846;2023-09-30T11:33:47;3.97;;;2.65;;
37907;SDS011;23740;51.550;6.846;2023-09-30T11:36:18;6.40;;;3.08;;
37907;SDS011;23740;51.550;6.846;2023-09-30T11:38:48;4.50;;;2.22;;
37907;SDS011;23740;51.550;6.846;2023-09-30T11:41:18;3.78;;;2.70;;
37907;SDS011;23740;51.550;6.846;2023-09-30T11:43:58;4.85;;;2.35;;
37907;SDS011;23740;51.550;6.846;2023-09-30T11:46:27;3.58;;;2.53;;
37907;SDS011;23740;51.550;6.846;2023-09-30T11:48:56;4.68;;;2.20;;
37907;SDS011;23740;51.550;6.846;2023-09-30T11:51:25;3.42;;;1.95;;
37907;SDS011;23740;51.550;6.846;2023-09-30T11:53:53;3.95;;;2.47;;
37907;SDS011;23740;51.550;6.846;2023-09-30T11:56:23;5.00;;;2.38;;
37907;SDS011;23740;51.550;6.846;2023-09-30T11:58:56;5.15;;;2.88;;
37907;SDS011;23740;51.550;6.846;2023-09-30T12:01:25;5.28;;;3.15;;
37907;SDS011;23740;51.550;6.846;2023-09-30T12:03:57;6.30;;;2.92;;
37907;SDS011;23740;51.550;6.846;2023-09-30T12:06:26;3.65;;;2.67;;
37907;SDS011;23740;51.550;6.846;2023-09-30T12:08:54;3.95;;;2.55;;
37907;SDS011;23740;51.550;6.846;2023-09-30T12:11:24;4.88;;;3.35;;
37907;SDS011;23740;51.550;6.846;2023-09-30T12:13:52;4.15;;;3.00;;
37907;SDS011;23740;51.550;6.846;2023-09-30T12:16:23;5.18;;;2.30;;
37907;SDS011;23740;51.550;6.846;2023-09-30T12:18:54;5.15;;;3.00;;
37907;SDS011;23740;51.550;6.846;2023-09-30T12:21:22;5.47;;;2.33;;
37907;SDS011;23740;51.550;6.846;2023-09-30T12:23:50;3.08;;;2.17;;
37907;SDS011;23740;51.550;6.846;2023-09-30T12:26:18;4.78;;;2.13;;
37907;SDS011;23740;51.550;6.846;2023-09-30T12:28:48;4.63;;;2.47;;
37907;SDS011;23740;51.550;6.846;2023-09-30T12:31:15;4.38;;;2.88;;
37907;SDS011;23740;51.550;6.846;2023-09-30T12:33:45;3.28;;;2.78;;
37907;SDS011;23740;51.550;6.846;2023-09-30T12:36:17;5.18;;;3.35;;
37907;SDS011;23740;51.550;6.846;2023-09-30T12:38:45;5.78;;;3.75;;
37907;SDS011;23740;51.550;6.846;2023-09-30T12:41:13;3.92;;;2.65;;
37907;SDS011;23740;51.550;6.846;2023-09-30T12:43:41;4.95;;;2.75;;
37907;SDS011;23740;51.550;6.846;2023-09-30T12:46:10;5.07;;;3.58;;
37907;SDS011;23740;51.550;6.846;2023-09-30T12:48:40;4.72;;;3.50;;
37907;SDS011;23740;51.550;6.846;2023-09-30T12:51:08;4.18;;;2.47;;
37907;SDS011;23740;51.550;6.846;2023-09-30T12:53:36;4.68;;;2.53;;
37907;SDS011;23740;51.550;6.846;2023-09-30T12:56:04;3.65;;;2.85;;
37907;SDS011;23740;51.550;6.846;2023-09-30T12:58:32;5.15;;;2.67;;
37907;SDS011;23740;51.550;6.846;2023-09-30T13:01:00;4.03;;;2.78;;
37907;SDS011;23740;51.550;6.846;2023-09-30T13:03:49;3.80;;;2.42;;
37907;SDS011;23740;51.550;6.846;2023-09-30T13:06:18;3.70;;;2.63;;
37907;SDS011;23740;51.550;6.846;2023-09-30T13:08:48;4.82;;;2.95;;
37907;SDS011;23740;51.550;6.846;2023-09-30T13:11:16;6.80;;;3.03;;
37907;SDS011;23740;51.550;6.846;2023-09-30T13:13:43;3.35;;;2.50;;
37907;SDS011;23740;51.550;6.846;2023-09-30T13:16:12;7.22;;;3.33;;
37907;SDS011;23740;51.550;6.846;2023-09-30T13:18:40;3.65;;;2.63;;
37907;SDS011;23740;51.550;6.846;2023-09-30T13:21:10;5.18;;;2.88;;
37907;SDS011;23740;51.550;6.846;2023-09-30T13:23:39;6.78;;;2.90;;
37907;SDS011;23740;51.550;6.846;2023-09-30T13:26:08;4.10;;;2.63;;
37907;SDS011;23740;51.550;6.846;2023-09-30T13:28:36;3.58;;;3.00;;
37907;SDS011;23740;51.550;6.846;2023-09-30T13:31:04;3.35;;;2.50;;
37907;SDS011;23740;51.550;6.846;2023-09-30T13:33:32;4.82;;;2.90;;
37907;SDS011;23740;51.550;6.846;2023-09-30T13:36:00;3.83;;;2.72;;
37907;SDS011;23740;51.550;6.846;2023-09-30T13:38:30;3.00;;;2.45;;
37907;SDS011;23740;51.550;6.846;2023-09-30T13:40:58;4.18;;;3.25;;
37907;SDS011;23740;51.550;6.846;2023-09-30T13:43:26;4.03;;;2.55;;
37907;SDS011;23740;51.550;6.846;2023-09-30T13:45:53;3.55;;;2.88;;
37907;SDS011;23740;51.550;6.846;2023-09-30T13:48:22;3.45;;;3.10;;
37907;SDS011;23740;51.550;6.846;2023-09-30T13:50:51;6.13;;;2.60;;
37907;SDS011;23740;51.550;6.846;2023-09-30T13:53:19;6.13;;;3.00;;
37907;SDS011;23740;51.550;6.846;2023-09-30T13:55:48;4.90;;;2.75;;
37907;SDS011;23740;51.550;6.846;2023-09-30T13:58:16;4.60;;;2.88;;
37907;SDS011;23740;51.550;6.846;2023-09-30T14:00:46;3.58;;;2.72;;
37907;SDS011;23740;51.550;6.846;2023-09-30T14:03:14;4.85;;;2.95;;
37907;SDS011;23740;51.550;6.846;2023-09-30T14:05:42;4.53;;;2.88;;
37907;SDS011;23740;51.550;6.846;2023-09-30T14:08:11;3.58;;;2.70;;
37907;SDS011;23740;51.550;6.846;2023-09-30T14:10:39;5.50;;;2.85;;
37907;SDS011;23740;51.550;6.846;2023-09-30T14:13:09;2.70;;;2.33;;
37907;SDS011;23740;51.550;6.846;2023-09-30T14:15:37;3.53;;;3.05;;
37907;SDS011;23740;51.550;6.846;2023-09-30T14:18:05;4.28;;;2.55;;
37907;SDS011;23740;51.550;6.846;2023-09-30T14:20:34;6.07;;;3.47;;
37907;SDS011;23740;51.550;6.846;2023-09-30T14:23:02;3.65;;;2.50;;
37907;SDS011;23740;51.550;6.846;2023-09-30T14:25:30;4.05;;;2.85;;
37907;SDS011;23740;51.550;6.846;2023-09-30T14:27:58;4.53;;;3.20;;
37907;SDS011;23740;51.550;6.846;2023-09-30T14:30:28;4.40;;;3.00;;
37907;SDS011;23740;51.550;6.846;2023-09-30T14:32:56;4.70;;;3.05;;
37907;SDS011;23740;51.550;6.846;2023-09-30T14:35:24;5.25;;;3.60;;
37907;SDS011;23740;51.550;6.846;2023-09-30T14:37:52;2.78;;;2.55;;
37907;SDS011;23740;51.550;6.846;2023-09-30T14:40:20;4.20;;;2.88;;
37907;SDS011;23740;51.550;6.846;2023-09-30T14:42:48;2.92;;;2.70;;
37907;SDS011;23740;51.550;6.846;2023-09-30T14:45:16;4.60;;;2.85;;
37907;SDS011;23740;51.550;6.846;2023-09-30T14:47:45;3.17;;;2.88;;
37907;SDS011;23740;51.550;6.846;2023-09-30T14:50:13;5.93;;;3.40;;
37907;SDS011;23740;51.550;6.846;2023-09-30T14:52:42;3.92;;;3.03;;
37907;SDS011;23740;51.550;6.846;2023-09-30T14:55:10;4.32;;;2.85;;
37907;SDS011;23740;51.550;6.846;2023-09-30T14:57:38;4.22;;;2.53;;
37907;SDS011;23740;51.550;6.846;2023-09-30T15:00:06;3.50;;;3.13;;
37907;SDS011;23740;51.550;6.846;2023-09-30T15:02:37;3.90;;;3.03;;
37907;SDS011;23740;51.550;6.846;2023-09-30T15:05:08;5.78;;;2.90;;
37907;SDS011;23740;51.550;6.846;2023-09-30T15:07:36;4.00;;;3.03;;
37907;SDS011;23740;51.550;6.846;2023-09-30T15:10:05;3.28;;;2.45;;
37907;SDS011;23740;51.550;6.846;2023-09-30T15:12:33;5.13;;;3.47;;
37907;SDS011;23740;51.550;6.846;2023-09-30T15:15:01;4.43;;;3.05;;
37907;SDS011;23740;51.550;6.846;2023-09-30T15:17:30;3.70;;;3.20;;